createdAt,value
2018-04-28T00:00:09.182Z,6.00
2018-04-28T00:01:09.164Z,6.30
2018-04-28T00:02:09.147Z,6.30
2018-04-28T00:03:09.131Z,6.40
2018-04-28T00:04:09.113Z,6.20
2018-04-28T00:05:09.097Z,6.30
2018-04-28T00:06:09.084Z,5.90
2018-04-28T00:07:09.063Z,6.10
2018-04-28T00:08:09.047Z,6.40
2018-04-28T00:09:09.031Z,6.40
2018-04-28T00:10:09.013Z,6.60
2018-04-28T00:11:08.995Z,5.90
2018-04-28T00:12:08.977Z,6.60
2018-04-28T00:13:08.966Z,6.60
2018-04-28T00:14:08.944Z,6.30
2018-04-28T00:15:08.929Z,6.40
2018-04-28T00:16:08.913Z,6.60
2018-04-28T00:17:08.894Z,6.60
2018-04-28T00:18:08.881Z,5.80
2018-04-28T00:19:08.859Z,6.30
2018-04-28T00:20:08.845Z,6.00
2018-04-28T00:21:08.826Z,6.40
2018-04-28T00:22:08.811Z,6.20
2018-04-28T00:23:08.794Z,6.40
2018-04-28T00:24:08.775Z,6.50
2018-04-28T00:25:08.759Z,6.60
2018-04-28T00:26:08.743Z,6.30
2018-04-28T00:27:08.727Z,6.60
2018-04-28T00:28:08.707Z,6.40
2018-04-28T00:29:08.690Z,7.20
2018-04-28T00:30:08.684Z,6.70
2018-04-28T00:31:08.656Z,6.40
2018-04-28T00:32:08.640Z,6.70
2018-04-28T00:33:08.621Z,6.50
2018-04-28T00:34:08.619Z,6.40
2018-04-28T00:35:08.587Z,6.20
2018-04-28T00:36:08.567Z,6.50
2018-04-28T00:37:08.557Z,6.80
2018-04-28T00:38:08.537Z,6.60
2018-04-28T00:39:08.525Z,7.00
2018-04-28T00:40:08.502Z,6.40
2018-04-28T00:41:08.492Z,6.40
2018-04-28T00:42:08.468Z,7.00
2018-04-28T00:43:08.454Z,6.20
2018-04-28T00:44:08.432Z,6.50
2018-04-28T00:45:08.417Z,7.10
2018-04-28T00:46:08.400Z,6.40
2018-04-28T00:47:08.381Z,6.80
2018-04-28T00:48:08.364Z,6.30
2018-04-28T00:49:08.348Z,7.00
2018-04-28T00:50:08.330Z,6.30
2018-04-28T00:51:08.397Z,6.70
2018-04-28T00:52:08.296Z,6.40
2018-04-28T00:53:08.278Z,6.70
2018-04-28T00:54:08.263Z,6.30
2018-04-28T00:55:08.246Z,6.30
2018-04-28T00:56:08.235Z,7.20
2018-04-28T00:57:08.210Z,6.80
2018-04-28T00:58:08.207Z,6.60
2018-04-28T00:59:08.175Z,6.70
2018-04-28T01:00:08.157Z,7.10
2018-04-28T01:01:08.139Z,6.70
2018-04-28T01:02:08.124Z,6.50
2018-04-28T01:03:08.108Z,6.90
2018-04-28T01:04:08.089Z,6.60
2018-04-28T01:05:08.070Z,6.90
2018-04-28T01:06:08.056Z,6.80
2018-04-28T01:07:08.040Z,6.50
2018-04-28T01:08:08.019Z,6.60
2018-04-28T01:09:08.006Z,7.10
2018-04-28T01:10:08.058Z,6.40
2018-04-28T01:11:07.967Z,7.00
2018-04-28T01:12:07.949Z,6.30
2018-04-28T01:13:07.933Z,6.90
2018-04-28T01:14:07.918Z,6.50
2018-04-28T01:15:07.899Z,6.00
2018-04-28T01:16:07.888Z,7.10
2018-04-28T01:17:07.866Z,7.10
2018-04-28T01:18:07.850Z,6.80
2018-04-28T01:19:07.838Z,6.60
2018-04-28T01:20:07.815Z,7.00
2018-04-28T01:21:07.794Z,7.10
2018-04-28T01:22:07.777Z,7.30
2018-04-28T01:23:07.757Z,7.30
2018-04-28T01:24:07.742Z,6.20
2018-04-28T01:25:07.725Z,7.00
2018-04-28T01:26:07.709Z,6.80
2018-04-28T01:27:07.690Z,6.90
2018-04-28T01:28:07.676Z,7.20
2018-04-28T01:29:07.656Z,6.60
2018-04-28T01:30:07.638Z,6.80
2018-04-28T01:31:07.621Z,7.00
2018-04-28T01:32:07.601Z,6.80
2018-04-28T01:33:07.589Z,7.00
2018-04-28T01:34:07.567Z,7.20
2018-04-28T01:35:07.552Z,7.10
2018-04-28T01:36:07.531Z,7.10
2018-04-28T01:37:07.516Z,6.90
2018-04-28T01:38:07.498Z,7.40
2018-04-28T01:39:07.480Z,7.40
2018-04-28T01:40:07.461Z,6.60
2018-04-28T01:41:07.445Z,7.20
2018-04-28T01:42:07.425Z,7.20
2018-04-28T01:43:07.409Z,6.90
2018-04-28T01:44:07.390Z,7.40
2018-04-28T01:45:07.374Z,7.00
2018-04-28T01:46:07.357Z,7.00
2018-04-28T01:47:07.340Z,7.10
2018-04-28T01:48:07.320Z,7.10
2018-04-28T01:49:07.304Z,7.00
2018-04-28T01:50:07.285Z,7.30
2018-04-28T01:51:07.271Z,7.40
2018-04-28T01:52:07.252Z,7.00
2018-04-28T01:53:07.237Z,7.40
2018-04-28T01:54:07.222Z,7.10
2018-04-28T01:55:07.198Z,7.10
2018-04-28T01:56:07.180Z,7.70
2018-04-28T01:57:07.162Z,7.80
2018-04-28T01:58:07.150Z,7.30
2018-04-28T01:59:07.127Z,6.90
2018-04-28T02:00:07.110Z,7.60
2018-04-28T02:01:07.090Z,7.00
2018-04-28T02:02:07.075Z,7.90
2018-04-28T02:03:07.058Z,7.30
2018-04-28T02:04:07.037Z,7.10
2018-04-28T02:05:07.023Z,8.50
2018-04-28T02:06:07.003Z,7.30
2018-04-28T02:07:06.986Z,7.40
2018-04-28T02:08:06.968Z,6.90
2018-04-28T02:09:06.953Z,6.90
2018-04-28T02:10:06.933Z,6.80
2018-04-28T02:11:06.916Z,7.00
2018-04-28T02:12:06.899Z,7.40
2018-04-28T02:13:06.884Z,7.00
2018-04-28T02:14:06.863Z,7.80
2018-04-28T02:15:06.845Z,8.20
2018-04-28T02:16:06.826Z,7.60
2018-04-28T02:17:06.809Z,7.60
2018-04-28T02:18:06.794Z,7.60
2018-04-28T02:19:06.779Z,7.60
2018-04-28T02:20:06.755Z,7.30
2018-04-28T02:21:06.738Z,7.60
2018-04-28T02:22:06.719Z,7.50
2018-04-28T02:23:06.703Z,7.40
2018-04-28T02:24:06.684Z,7.20
2018-04-28T02:25:06.665Z,8.30
2018-04-28T02:26:06.649Z,8.10
2018-04-28T02:27:06.631Z,7.50
2018-04-28T02:28:06.615Z,7.30
2018-04-28T02:29:06.594Z,7.80
2018-04-28T02:30:06.578Z,7.80
2018-04-28T02:31:06.560Z,8.00
2018-04-28T02:32:06.542Z,7.90
2018-04-28T02:33:06.526Z,8.00
2018-04-28T02:34:06.508Z,8.00
2018-04-28T02:35:06.491Z,7.00
2018-04-28T02:36:06.477Z,8.10
2018-04-28T02:37:06.453Z,8.50
2018-04-28T02:38:06.434Z,7.40
2018-04-28T02:39:06.415Z,7.40
2018-04-28T02:40:06.402Z,8.00
2018-04-28T02:41:06.379Z,8.10
2018-04-28T02:42:06.361Z,7.80
2018-04-28T02:43:06.344Z,7.70
2018-04-28T02:44:06.329Z,7.90
2018-04-28T02:45:06.308Z,8.50
2018-04-28T02:46:06.291Z,7.60
2018-04-28T02:47:06.272Z,7.80
2018-04-28T02:48:06.256Z,8.20
2018-04-28T02:49:06.237Z,8.30
2018-04-28T02:50:06.313Z,8.20
2018-04-28T02:51:06.198Z,8.00
2018-04-28T02:52:06.188Z,8.20
2018-04-28T02:53:06.167Z,7.80
2018-04-28T02:54:06.145Z,7.50
2018-04-28T02:55:06.127Z,7.90
2018-04-28T02:56:06.111Z,8.30
2018-04-28T02:57:06.099Z,8.00
2018-04-28T02:58:06.074Z,7.90
2018-04-28T02:59:06.059Z,8.90
2018-04-28T03:00:06.038Z,8.40
2018-04-28T03:01:06.021Z,8.20
2018-04-28T03:02:06.001Z,7.70
2018-04-28T03:03:05.982Z,7.40
2018-04-28T03:04:05.966Z,8.60
2018-04-28T03:05:05.946Z,9.00
2018-04-28T03:06:05.929Z,8.10
2018-04-28T03:07:05.911Z,7.80
2018-04-28T03:08:05.896Z,7.80
2018-04-28T03:09:05.875Z,8.10
2018-04-28T03:10:05.864Z,8.70
2018-04-28T03:11:05.837Z,8.00
2018-04-28T03:12:05.820Z,7.80
2018-04-28T03:13:05.805Z,7.90
2018-04-28T03:14:05.783Z,8.20
2018-04-28T03:15:05.769Z,8.20
2018-04-28T03:16:05.745Z,8.20
2018-04-28T03:17:05.728Z,7.80
2018-04-28T03:18:05.712Z,8.40
2018-04-28T03:19:05.691Z,7.80
2018-04-28T03:20:05.673Z,8.40
2018-04-28T03:21:05.655Z,8.70
2018-04-28T03:22:05.641Z,8.50
2018-04-28T03:23:05.617Z,9.00
2018-04-28T03:24:05.601Z,8.00
2018-04-28T03:25:05.585Z,8.30
2018-04-28T03:26:05.564Z,8.30
2018-04-28T03:27:05.548Z,8.20
2018-04-28T03:28:05.527Z,8.90
2018-04-28T03:29:05.507Z,8.40
2018-04-28T03:30:05.493Z,9.00
2018-04-28T03:31:05.472Z,8.30
2018-04-28T03:32:05.453Z,8.00
2018-04-28T03:33:05.440Z,8.10
2018-04-28T03:34:05.417Z,8.80
2018-04-28T03:35:05.415Z,8.70
2018-04-28T03:36:05.381Z,8.90
2018-04-28T03:37:05.362Z,8.10
2018-04-28T03:38:05.343Z,8.50
2018-04-28T03:39:05.376Z,8.40
2018-04-28T03:40:05.306Z,8.70
2018-04-28T03:41:05.292Z,8.60
2018-04-28T03:42:05.271Z,8.00
2018-04-28T03:43:05.251Z,8.30
2018-04-28T03:44:05.230Z,9.10
2018-04-28T03:45:05.214Z,8.50
2018-04-28T03:46:05.202Z,9.20
2018-04-28T03:47:05.182Z,9.00
2018-04-28T03:48:05.158Z,8.60
2018-04-28T03:49:05.141Z,9.10
2018-04-28T03:50:05.124Z,8.70
2018-04-28T03:51:05.104Z,9.40
2018-04-28T03:52:05.086Z,9.10
2018-04-28T03:53:05.068Z,9.10
2018-04-28T03:54:05.048Z,8.60
2018-04-28T03:55:05.080Z,9.00
2018-04-28T03:56:05.023Z,8.90
2018-04-28T03:57:04.996Z,10.20
2018-04-28T03:58:04.982Z,8.60
2018-04-28T03:59:04.955Z,8.90
2018-04-28T04:00:04.939Z,8.90
2018-04-28T04:01:04.919Z,8.00
2018-04-28T04:02:04.901Z,8.10
2018-04-28T04:03:04.882Z,8.80
2018-04-28T04:04:04.863Z,8.30
2018-04-28T04:05:04.845Z,7.60
2018-04-28T04:06:04.830Z,8.10
2018-04-28T04:07:04.813Z,7.80
2018-04-28T04:08:04.788Z,8.00
2018-04-28T04:09:04.771Z,8.10
2018-04-28T04:10:04.754Z,8.60
2018-04-28T04:11:04.734Z,8.10
2018-04-28T04:12:04.715Z,7.70
2018-04-28T04:13:04.696Z,8.10
2018-04-28T04:14:04.676Z,7.70
2018-04-28T04:15:04.661Z,7.70
2018-04-28T04:16:04.645Z,7.80
2018-04-28T04:17:04.622Z,8.10
2018-04-28T04:18:04.601Z,8.70
2018-04-28T04:19:04.590Z,8.00
2018-04-28T04:20:04.566Z,8.20
2018-04-28T04:21:04.549Z,8.70
2018-04-28T04:22:04.529Z,9.20
2018-04-28T04:23:04.514Z,7.20
2018-04-28T04:24:04.493Z,8.30
2018-04-28T04:25:04.474Z,7.90
2018-04-28T04:26:04.456Z,7.90
2018-04-28T04:27:04.437Z,7.70
2018-04-28T04:28:04.416Z,8.80
2018-04-28T04:29:04.398Z,7.80
2018-04-28T04:30:04.381Z,7.80
2018-04-28T04:31:04.362Z,8.00
2018-04-28T04:32:04.344Z,8.30
2018-04-28T04:33:04.335Z,9.30
2018-04-28T04:34:04.306Z,8.70
2018-04-28T04:35:04.292Z,9.10
2018-04-28T04:36:04.269Z,9.80
2018-04-28T04:37:04.264Z,9.70
2018-04-28T04:38:04.236Z,9.50
2018-04-28T04:39:04.214Z,8.90
2018-04-28T04:40:04.195Z,9.20
2018-04-28T04:41:04.174Z,9.10
2018-04-28T04:42:04.160Z,8.20
2018-04-28T04:43:04.147Z,8.30
2018-04-28T04:44:04.132Z,8.30
2018-04-28T04:45:04.103Z,8.50
2018-04-28T04:46:04.083Z,8.30
2018-04-28T04:47:04.067Z,9.10
2018-04-28T04:48:04.046Z,8.20
2018-04-28T04:49:04.025Z,8.70
2018-04-28T04:50:04.009Z,8.70
2018-04-28T04:51:03.990Z,8.90
2018-04-28T04:52:03.972Z,8.60
2018-04-28T04:53:03.952Z,7.70
2018-04-28T04:54:03.934Z,8.90
2018-04-28T04:55:03.925Z,9.50
2018-04-28T04:56:03.898Z,9.40
2018-04-28T04:57:03.877Z,8.50
2018-04-28T04:58:03.864Z,8.90
2018-04-28T04:59:03.840Z,8.00
2018-04-28T05:00:03.822Z,8.70
2018-04-28T05:01:03.804Z,8.80
2018-04-28T05:02:03.785Z,9.60
2018-04-28T05:03:03.765Z,8.90
2018-04-28T05:04:03.745Z,9.40
2018-04-28T05:05:03.729Z,8.30
2018-04-28T05:06:03.718Z,7.70
2018-04-28T05:07:03.696Z,8.00
2018-04-28T05:08:03.675Z,8.30
2018-04-28T05:09:03.660Z,7.90
2018-04-28T05:10:03.637Z,8.90
2018-04-28T05:11:03.628Z,8.10
2018-04-28T05:12:03.600Z,8.20
2018-04-28T05:13:03.584Z,7.90
2018-04-28T05:14:03.567Z,8.00
2018-04-28T05:15:03.546Z,7.70
2018-04-28T05:16:03.526Z,7.70
2018-04-28T05:17:03.507Z,7.80
2018-04-28T05:18:03.492Z,8.40
2018-04-28T05:19:03.541Z,7.70
2018-04-28T05:20:03.451Z,8.30
2018-04-28T05:21:03.436Z,8.00
2018-04-28T05:22:03.414Z,8.70
2018-04-28T05:23:03.403Z,8.30
2018-04-28T05:24:03.382Z,8.80
2018-04-28T05:25:03.362Z,7.90
2018-04-28T05:26:03.347Z,8.60
2018-04-28T05:27:03.325Z,8.50
2018-04-28T05:28:03.311Z,8.30
2018-04-28T05:29:03.293Z,8.70
2018-04-28T05:30:03.276Z,8.40
2018-04-28T05:31:03.258Z,7.70
2018-04-28T05:32:03.238Z,7.70
2018-04-28T05:33:03.218Z,7.30
2018-04-28T05:34:03.203Z,7.40
2018-04-28T05:35:03.188Z,8.30
2018-04-28T05:36:03.184Z,7.50
2018-04-28T05:37:03.146Z,8.00
2018-04-28T05:38:03.131Z,7.10
2018-04-28T05:39:03.111Z,8.00
2018-04-28T05:40:03.094Z,7.50
2018-04-28T05:41:03.074Z,8.50
2018-04-28T05:42:03.128Z,7.70
2018-04-28T05:43:03.039Z,7.70
2018-04-28T05:44:03.021Z,7.30
2018-04-28T05:45:03.012Z,7.10
2018-04-28T05:46:02.987Z,8.20
2018-04-28T05:47:02.971Z,8.00
2018-04-28T05:48:02.955Z,7.50
2018-04-28T05:49:02.934Z,7.40
2018-04-28T05:50:02.917Z,7.10
2018-04-28T05:51:02.903Z,6.90
2018-04-28T05:52:02.882Z,6.70
2018-04-28T05:53:02.864Z,6.80
2018-04-28T05:54:02.846Z,7.30
2018-04-28T05:55:02.829Z,7.10
2018-04-28T05:56:02.812Z,6.70
2018-04-28T05:57:02.800Z,7.00
2018-04-28T05:58:02.777Z,6.60
2018-04-28T05:59:02.762Z,6.80
2018-04-28T06:00:02.741Z,7.40
2018-04-28T06:01:02.725Z,6.30
2018-04-28T06:02:02.708Z,6.80
2018-04-28T06:03:02.692Z,6.60
2018-04-28T06:04:02.681Z,6.70
2018-04-28T06:05:02.656Z,6.40
2018-04-28T06:06:02.637Z,6.70
2018-04-28T06:07:02.630Z,6.10
2018-04-28T06:08:02.602Z,6.30
2018-04-28T06:09:02.588Z,6.50
2018-04-28T06:10:02.570Z,6.20
2018-04-28T06:11:02.553Z,6.30
2018-04-28T06:12:02.534Z,6.20
2018-04-28T06:13:02.522Z,6.10
2018-04-28T06:14:02.532Z,6.40
2018-04-28T06:15:02.484Z,6.40
2018-04-28T06:16:02.470Z,6.30
2018-04-28T06:17:02.454Z,6.10
2018-04-28T06:18:02.435Z,6.30
2018-04-28T06:19:02.418Z,6.40
2018-04-28T06:20:02.438Z,5.80
2018-04-28T06:21:02.386Z,6.30
2018-04-28T06:22:02.372Z,6.00
2018-04-28T06:23:02.352Z,6.20
2018-04-28T06:24:02.334Z,5.90
2018-04-28T06:25:02.321Z,5.90
2018-04-28T06:26:02.351Z,6.40
2018-04-28T06:27:02.286Z,5.90
2018-04-28T06:28:02.268Z,5.80
2018-04-28T06:29:02.256Z,6.00
2018-04-28T06:30:02.238Z,5.70
2018-04-28T06:31:02.223Z,5.70
2018-04-28T06:32:02.212Z,5.60
2018-04-28T06:33:02.189Z,5.70
2018-04-28T06:34:02.178Z,5.50
2018-04-28T06:35:02.157Z,5.70
2018-04-28T06:36:02.153Z,5.50
2018-04-28T06:37:02.134Z,5.60
2018-04-28T06:38:02.111Z,6.30
2018-04-28T06:39:02.095Z,5.10
2018-04-28T06:40:02.078Z,5.70
2018-04-28T06:41:02.061Z,5.60
2018-04-28T06:42:02.047Z,5.50
2018-04-28T06:43:02.032Z,5.40
2018-04-28T06:44:02.019Z,5.50
2018-04-28T06:45:02.007Z,5.30
2018-04-28T06:46:01.989Z,5.60
2018-04-28T06:47:01.971Z,5.60
2018-04-28T06:48:01.958Z,4.90
2018-04-28T06:49:01.942Z,5.30
2018-04-28T06:50:01.935Z,5.50
2018-04-28T06:51:01.936Z,5.60
2018-04-28T06:52:01.899Z,5.20
2018-04-28T06:53:01.882Z,5.40
2018-04-28T06:54:01.867Z,5.20
2018-04-28T06:55:01.859Z,5.30
2018-04-28T06:56:01.844Z,5.70
2018-04-28T06:57:01.824Z,5.60
2018-04-28T06:58:01.809Z,5.00
2018-04-28T06:59:01.795Z,5.80
2018-04-28T07:00:01.787Z,5.30
2018-04-28T07:01:01.764Z,5.00
2018-04-28T07:02:01.753Z,5.10
2018-04-28T07:03:01.737Z,5.60
2018-04-28T07:04:01.720Z,5.20
2018-04-28T07:05:01.706Z,4.70
2018-04-28T07:06:01.700Z,5.60
2018-04-28T07:07:01.681Z,5.00
2018-04-28T07:08:01.665Z,4.80
2018-04-28T07:09:01.660Z,4.90
2018-04-28T07:10:01.648Z,5.10
2018-04-28T07:11:01.628Z,4.90
2018-04-28T07:12:01.622Z,4.50
2018-04-28T07:13:01.603Z,4.60
2018-04-28T07:14:01.591Z,4.70
2018-04-28T07:15:01.579Z,4.40
2018-04-28T07:16:01.566Z,4.80
2018-04-28T07:17:01.555Z,4.50
2018-04-28T07:18:01.543Z,4.80
2018-04-28T07:19:01.535Z,4.60
2018-04-28T07:20:01.521Z,4.50
2018-04-28T07:21:01.515Z,4.60
2018-04-28T07:22:01.505Z,4.50
2018-04-28T07:23:01.496Z,4.10
2018-04-28T07:24:01.487Z,4.00
2018-04-28T07:25:01.474Z,3.90
2018-04-28T07:26:01.470Z,3.80
2018-04-28T07:27:01.455Z,4.10
2018-04-28T07:28:01.448Z,4.30
2018-04-28T07:29:01.434Z,3.90
2018-04-28T07:30:01.435Z,3.50
2018-04-28T07:31:01.420Z,4.00
2018-04-28T07:32:01.407Z,4.20
2018-04-28T07:33:01.397Z,3.80
2018-04-28T07:34:01.391Z,3.80
2018-04-28T07:35:01.383Z,4.20
2018-04-28T07:36:01.381Z,4.20
2018-04-28T07:37:01.370Z,4.40
2018-04-28T07:38:01.363Z,3.80
2018-04-28T07:39:01.405Z,3.90
2018-04-28T07:40:01.347Z,4.40
2018-04-28T07:41:01.340Z,4.00
2018-04-28T07:42:01.336Z,3.50
2018-04-28T07:43:01.330Z,3.90
2018-04-28T07:44:01.322Z,4.00
2018-04-28T07:45:01.317Z,3.50
2018-04-28T07:46:01.315Z,3.50
2018-04-28T07:47:01.308Z,3.70
2018-04-28T07:48:01.307Z,4.00
2018-04-28T07:49:01.301Z,3.10
2018-04-28T07:50:01.299Z,3.50
2018-04-28T07:51:01.294Z,3.50
2018-04-28T07:52:01.291Z,3.80
2018-04-28T07:53:01.289Z,3.60
2018-04-28T07:54:01.288Z,3.30
2018-04-28T07:55:01.281Z,3.30
2018-04-28T07:56:01.279Z,3.40
2018-04-28T07:57:01.276Z,3.00
2018-04-28T07:58:01.275Z,3.30
2018-04-28T07:59:01.273Z,3.20
2018-04-28T08:00:01.273Z,2.90
2018-04-28T08:01:01.273Z,2.70
2018-04-28T08:02:01.270Z,3.00
2018-04-28T08:03:01.273Z,2.90
2018-04-28T08:04:01.267Z,2.80
2018-04-28T08:05:01.266Z,2.90
2018-04-28T08:06:01.266Z,3.10
2018-04-28T08:07:01.286Z,3.00
2018-04-28T08:08:01.264Z,2.90
2018-04-28T08:09:01.263Z,2.50
2018-04-28T08:10:01.264Z,2.90
2018-04-28T08:11:01.271Z,2.40
2018-04-28T08:12:01.263Z,2.60
2018-04-28T08:13:01.261Z,3.00
2018-04-28T08:14:01.264Z,2.90
2018-04-28T08:15:01.265Z,2.30
2018-04-28T08:16:01.262Z,2.20
2018-04-28T08:17:01.265Z,2.40
2018-04-28T08:18:01.264Z,2.30
2018-04-28T08:19:01.264Z,2.20
2018-04-28T08:20:01.268Z,2.40
2018-04-28T08:21:01.265Z,2.60
2018-04-28T08:22:01.266Z,1.80
2018-04-28T08:23:01.267Z,2.40
2018-04-28T08:24:01.275Z,2.10
2018-04-28T08:25:01.276Z,1.90
2018-04-28T08:26:01.269Z,2.00
2018-04-28T08:27:01.271Z,2.20
2018-04-28T08:28:01.276Z,2.40
2018-04-28T08:29:01.287Z,2.30
2018-04-28T08:30:01.273Z,2.00
2018-04-28T08:31:01.276Z,3.80
2018-04-28T08:32:01.284Z,24.90
2018-04-28T08:33:01.282Z,11.70
2018-04-28T08:34:01.284Z,2.90
2018-04-28T08:35:01.286Z,2.00
2018-04-28T08:36:01.281Z,6.30
2018-04-28T08:37:01.290Z,7.70
2018-04-28T08:38:01.290Z,40.40
2018-04-28T08:39:01.290Z,13.80
2018-04-28T08:40:01.289Z,4.60
2018-04-28T08:41:01.295Z,2.40
2018-04-28T08:42:01.294Z,2.50
2018-04-28T08:43:01.298Z,2.60
2018-04-28T08:44:01.299Z,2.30
2018-04-28T08:45:01.302Z,2.50
2018-04-28T08:46:01.302Z,2.30
2018-04-28T08:47:01.304Z,2.40
2018-04-28T08:48:01.308Z,2.20
2018-04-28T08:49:01.308Z,2.00
2018-04-28T08:50:01.318Z,2.40
2018-04-28T08:51:01.378Z,2.20
2018-04-28T08:52:01.308Z,2.10
2018-04-28T08:53:01.308Z,2.10
2018-04-28T08:54:01.317Z,1.90
2018-04-28T08:55:01.310Z,2.10
2018-04-28T08:56:01.310Z,2.30
2018-04-28T08:57:01.314Z,2.20
2018-04-28T08:58:01.310Z,2.30
2018-04-28T08:59:01.311Z,1.90
2018-04-28T09:00:01.310Z,2.20
2018-04-28T09:01:01.311Z,2.60
2018-04-28T09:02:01.312Z,2.30
2018-04-28T09:03:01.310Z,2.30
2018-04-28T09:04:01.309Z,2.10
2018-04-28T09:05:01.312Z,2.10
2018-04-28T09:06:01.307Z,2.00
2018-04-28T09:07:01.308Z,2.20
2018-04-28T09:08:01.308Z,2.50
2018-04-28T09:09:01.324Z,2.20
2018-04-28T09:10:01.311Z,2.20
2018-04-28T09:11:01.301Z,2.00
2018-04-28T09:12:01.300Z,2.00
2018-04-28T09:13:01.361Z,2.00
2018-04-28T09:14:01.296Z,2.40
2018-04-28T09:15:01.294Z,2.30
2018-04-28T09:16:01.293Z,2.20
2018-04-28T09:17:01.298Z,1.90
2018-04-28T09:18:01.288Z,2.10
2018-04-28T09:19:01.286Z,2.00
2018-04-28T09:20:01.285Z,2.00
2018-04-28T09:21:01.280Z,2.00
2018-04-28T09:22:01.279Z,2.20
2018-04-28T09:23:01.285Z,2.20
2018-04-28T09:24:01.274Z,2.00
2018-04-28T09:25:01.273Z,2.00
2018-04-28T09:26:01.304Z,2.10
2018-04-28T09:27:01.265Z,2.20
2018-04-28T09:28:01.263Z,2.30
2018-04-28T09:29:01.261Z,2.10
2018-04-28T09:30:01.261Z,1.90
2018-04-28T09:31:01.255Z,2.30
2018-04-28T09:32:01.253Z,2.40
2018-04-28T09:33:01.330Z,2.00
2018-04-28T09:34:01.243Z,2.60
2018-04-28T09:35:01.240Z,3.00
2018-04-28T09:36:01.238Z,3.00
2018-04-28T09:37:01.233Z,2.60
2018-04-28T09:38:01.228Z,3.10
2018-04-28T09:39:01.226Z,3.30
2018-04-28T09:40:01.232Z,3.00
2018-04-28T09:41:01.221Z,2.80
2018-04-28T09:42:01.216Z,2.70
2018-04-28T09:43:01.211Z,2.60
2018-04-28T09:44:01.204Z,3.00
2018-04-28T09:45:01.200Z,2.80
2018-04-28T09:46:01.196Z,3.00
2018-04-28T09:47:01.193Z,3.10
2018-04-28T09:48:01.187Z,2.90
2018-04-28T09:49:01.183Z,2.40
2018-04-28T09:50:01.178Z,2.40
2018-04-28T09:51:01.175Z,2.70
2018-04-28T09:52:01.168Z,2.90
2018-04-28T09:53:01.164Z,2.90
2018-04-28T09:54:01.159Z,2.80
2018-04-28T09:55:01.156Z,3.10
2018-04-28T09:56:01.154Z,3.20
2018-04-28T09:57:01.153Z,2.90
2018-04-28T09:58:01.140Z,2.90
2018-04-28T09:59:01.139Z,3.10
2018-04-28T10:00:01.132Z,2.90
2018-04-28T10:01:01.126Z,2.40
2018-04-28T10:02:01.121Z,2.20
2018-04-28T10:03:01.115Z,2.80
2018-04-28T10:04:01.110Z,2.80
2018-04-28T10:05:01.105Z,2.90
2018-04-28T10:06:01.128Z,2.30
2018-04-28T10:07:01.095Z,2.10
2018-04-28T10:08:01.096Z,2.30
2018-04-28T10:09:01.082Z,2.70
2018-04-28T10:10:01.077Z,2.30
2018-04-28T10:11:01.071Z,2.60
2018-04-28T10:12:01.065Z,2.30
2018-04-28T10:13:01.061Z,2.50
2018-04-28T10:14:01.056Z,2.60
2018-04-28T10:15:01.050Z,2.60
2018-04-28T10:16:01.043Z,2.90
2018-04-28T10:17:01.039Z,3.40
2018-04-28T10:18:01.032Z,2.50
2018-04-28T10:19:01.027Z,2.50
2018-04-28T10:20:01.024Z,2.90
2018-04-28T10:21:01.015Z,2.60
2018-04-28T10:22:01.013Z,2.70
2018-04-28T10:23:01.000Z,3.00
2018-04-28T10:24:00.996Z,2.90
2018-04-28T10:25:00.992Z,2.90
2018-04-28T10:26:00.983Z,2.90
2018-04-28T10:27:00.978Z,3.00
2018-04-28T10:28:00.972Z,2.70
2018-04-28T10:29:00.965Z,2.70
2018-04-28T10:30:00.958Z,2.90
2018-04-28T10:31:00.952Z,3.10
2018-04-28T10:32:00.948Z,3.50
2018-04-28T10:33:00.942Z,3.80
2018-04-28T10:34:00.943Z,3.50
2018-04-28T10:35:00.928Z,3.60
2018-04-28T10:36:00.929Z,3.60
2018-04-28T10:37:00.915Z,3.70
2018-04-28T10:38:00.912Z,3.90
2018-04-28T10:39:00.909Z,3.80
2018-04-28T10:40:00.897Z,3.50
2018-04-28T10:41:00.893Z,3.90
2018-04-28T10:42:00.890Z,4.00
2018-04-28T10:43:00.895Z,4.40
2018-04-28T10:44:00.876Z,4.30
2018-04-28T10:45:00.868Z,4.20
2018-04-28T10:46:00.862Z,4.10
2018-04-28T10:47:00.855Z,4.40
2018-04-28T10:48:00.847Z,5.00
2018-04-28T10:49:00.843Z,4.70
2018-04-28T10:50:00.841Z,4.40
2018-04-28T10:51:00.828Z,4.80
2018-04-28T10:52:00.822Z,5.00
2018-04-28T10:53:00.817Z,5.40
2018-04-28T10:54:00.817Z,5.30
2018-04-28T10:55:00.807Z,5.20
2018-04-28T10:56:00.801Z,4.80
2018-04-28T10:57:00.791Z,5.10
2018-04-28T10:58:00.787Z,4.70
2018-04-28T10:59:00.784Z,4.60
2018-04-28T11:00:00.771Z,4.60
2018-04-28T11:01:00.769Z,5.30
2018-04-28T11:02:00.763Z,5.10
2018-04-28T11:03:00.755Z,4.90
2018-04-28T11:04:00.747Z,5.20
2018-04-28T11:05:00.746Z,5.00
2018-04-28T11:06:00.739Z,5.00
2018-04-28T11:07:00.732Z,5.70
2018-04-28T11:08:00.722Z,5.00
2018-04-28T11:09:00.718Z,4.70
2018-04-28T11:10:00.713Z,4.90
2018-04-28T11:11:00.704Z,5.30
2018-04-28T11:12:00.697Z,4.80
2018-04-28T11:13:00.690Z,4.60
2018-04-28T11:14:00.684Z,4.90
2018-04-28T11:15:00.683Z,4.40
2018-04-28T11:16:00.672Z,4.00
2018-04-28T11:17:00.665Z,4.40
2018-04-28T11:18:00.659Z,4.90
2018-04-28T11:19:00.656Z,4.10
2018-04-28T11:20:00.691Z,4.10
2018-04-28T11:21:00.641Z,4.10
2018-04-28T11:22:00.640Z,3.90
2018-04-28T11:23:00.626Z,3.90
2018-04-28T11:24:00.621Z,3.80
2018-04-28T11:25:00.614Z,3.80
2018-04-28T11:26:00.607Z,3.90
2018-04-28T11:27:00.603Z,4.00
2018-04-28T11:28:00.599Z,3.50
2018-04-28T11:29:00.591Z,3.10
2018-04-28T11:30:00.582Z,2.80
2018-04-28T11:31:00.575Z,3.00
2018-04-28T11:32:00.581Z,3.20
2018-04-28T11:33:00.640Z,3.20
2018-04-28T11:34:00.562Z,2.90
2018-04-28T11:35:00.550Z,2.90
2018-04-28T11:36:00.543Z,3.30
2018-04-28T11:37:00.538Z,3.10
2018-04-28T11:38:00.532Z,2.70
2018-04-28T11:39:00.523Z,2.30
2018-04-28T11:40:00.515Z,2.10
2018-04-28T11:41:00.510Z,2.00
2018-04-28T11:42:00.511Z,1.50
2018-04-28T11:43:00.500Z,1.30
2018-04-28T11:44:00.494Z,1.20
2018-04-28T11:45:00.483Z,1.60
2018-04-28T11:46:00.477Z,1.60
2018-04-28T11:47:00.471Z,1.50
2018-04-28T11:48:00.468Z,1.50
2018-04-28T11:49:00.456Z,1.60
2018-04-28T11:50:00.452Z,1.50
2018-04-28T11:51:00.446Z,2.00
2018-04-28T11:52:00.441Z,2.00
2018-04-28T11:53:00.432Z,1.70
2018-04-28T11:54:00.428Z,1.30
2018-04-28T11:55:00.419Z,1.30
2018-04-28T11:56:00.414Z,1.40
2018-04-28T11:57:00.405Z,1.40
2018-04-28T11:58:00.398Z,1.20
2018-04-28T11:59:00.480Z,1.60
2018-04-28T12:00:00.384Z,1.50
2018-04-28T12:01:00.379Z,1.30
2018-04-28T12:02:00.373Z,1.40
2018-04-28T12:03:00.367Z,1.80
2018-04-28T12:04:00.360Z,1.60
2018-04-28T12:05:00.359Z,1.80
2018-04-28T12:06:00.353Z,2.10
2018-04-28T12:07:00.348Z,1.90
2018-04-28T12:08:00.332Z,2.10
2018-04-28T12:09:00.326Z,2.20
2018-04-28T12:10:00.321Z,1.50
2018-04-28T12:11:00.316Z,1.70
2018-04-28T12:12:00.307Z,1.50
2018-04-28T12:13:00.309Z,1.20
2018-04-28T12:14:00.300Z,1.30
2018-04-28T12:15:00.287Z,1.20
2018-04-28T12:16:00.280Z,1.40
2018-04-28T12:17:00.276Z,1.40
2018-04-28T12:18:00.274Z,1.60
2018-04-28T12:19:00.261Z,1.40
2018-04-28T12:20:00.261Z,1.60
2018-04-28T12:21:00.353Z,1.40
2018-04-28T12:22:00.240Z,1.70
2018-04-28T12:23:00.235Z,1.40
2018-04-28T12:24:00.231Z,1.50
2018-04-28T12:25:00.226Z,1.30
2018-04-28T12:26:00.213Z,1.40
2018-04-28T12:27:00.207Z,1.30
2018-04-28T12:28:00.199Z,1.40
2018-04-28T12:29:00.192Z,1.50
2018-04-28T12:30:00.191Z,1.30
2018-04-28T12:31:00.181Z,1.20
2018-04-28T12:32:00.171Z,1.20
2018-04-28T12:33:00.167Z,1.50
2018-04-28T12:34:00.170Z,1.20
2018-04-28T12:35:00.154Z,1.10
2018-04-28T12:36:00.173Z,1.00
2018-04-28T12:37:00.142Z,1.30
2018-04-28T12:38:00.142Z,1.40
2018-04-28T12:39:00.128Z,1.40
2018-04-28T12:40:00.123Z,1.00
2018-04-28T12:41:00.114Z,1.20
2018-04-28T12:42:00.110Z,1.00
2018-04-28T12:43:00.103Z,1.40
2018-04-28T12:44:00.098Z,1.40
2018-04-28T12:45:00.088Z,1.30
2018-04-28T12:46:00.085Z,1.30
2018-04-28T12:47:00.077Z,1.40
2018-04-28T12:48:00.066Z,1.20
2018-04-28T12:49:00.066Z,1.40
2018-04-28T12:50:00.055Z,1.60
2018-04-28T12:51:00.053Z,2.20
2018-04-28T12:52:00.042Z,1.30
2018-04-28T12:53:00.041Z,1.30
2018-04-28T12:54:00.033Z,1.00
2018-04-28T12:55:00.026Z,1.00
2018-04-28T12:56:00.033Z,1.10
2018-04-28T12:57:00.014Z,1.00
2018-04-28T12:58:00.018Z,1.00
2018-04-28T12:59:00.005Z,0.90
2018-04-28T13:00:00.010Z,1.10
2018-04-28T13:00:59.998Z,1.00
2018-04-28T13:01:59.996Z,0.80
2018-04-28T13:02:59.993Z,0.80
2018-04-28T13:03:59.985Z,1.00
2018-04-28T13:04:59.985Z,1.00
2018-04-28T13:05:59.983Z,1.10
2018-04-28T13:06:59.979Z,0.90
2018-04-28T13:07:59.975Z,0.90
2018-04-28T13:08:59.972Z,0.90
2018-04-28T13:09:59.969Z,1.10
2018-04-28T13:10:59.970Z,0.90
2018-04-28T13:11:59.969Z,1.00
2018-04-28T13:12:59.966Z,0.80
2018-04-28T13:13:59.961Z,0.80
2018-04-28T13:14:59.959Z,0.90
2018-04-28T13:15:59.956Z,0.90
2018-04-28T13:16:59.958Z,0.80
2018-04-28T13:17:59.952Z,0.70